Terminal Aerodrome Forecast
Issued by NWS

Home | Current Version | Previous Version | Text Only | Print | Product List | Glossary On
Versions: 1 2 3 4 5 6 7 8 9 10 11 12 13 14 15 16 17 18 19
000
FTUS41 KPBZ 231720
TAFZZV
TAF
KZZV 231720Z 2318/2418 07008KT P6SM SKC
     FM240300 12003KT P6SM BKN060
     FM241100 12004KT P6SM VCSH BKN025
     FM241600 13007KT P6SM VCSH BKN035=

USA.gov is the U.S. government's official web portal to all federal, state and local government web resources and services.